Station Historical Data
Daily Summary for January 30, 2018 Units:  English    Metric   Both
« Previous Day
Next Day »
Daily Weekly Monthly Yearly Custom
  High: Low: Average:
Temperature: TemperatureF °F 5.4 °F 15.8 °F
Dew Point: DewpointF °F 0.4 °F 10.7 °F
Humidity: Humidity% 68% 80%
Wind Speed: WindSpeedMPHmph 0.0mph 4.1mph
Wind Gust: WindSpeedGustMPHmph - -
Wind- - West
Pressure: PressureIn in 30.11 in -
Precipitation: 0.00 in    
Historical Graphs
 
 
Tabular Data for January 30, 2018
Time Temperature Dew Point Pressure Wind Wind Speed Wind Gust Humidity Rainfall Rate (Hourly)
TemperatureF °F DewpointF °F PressureIn in Calm     Humidity% HourlyPrecipIn in
00:04 21.9 °F 19.2 °F 30.11 in NNW 6.0 mph 11.0 mph 89% 0.00 in
00:09 21.7 °F 19.0 °F 30.11 in North 5.0 mph 10.0 mph 89% 0.00 in
00:14 21.6 °F 18.9 °F 30.11 in NNW 5.0 mph 10.0 mph 89% 0.00 in
00:19 21.6 °F 18.9 °F 30.11 in NNE 5.0 mph 9.0 mph 89% 0.00 in
00:24 21.5 °F 18.8 °F 30.11 in North 8.0 mph 10.0 mph 89% 0.00 in
00:29 21.4 °F 18.7 °F 30.11 in NW 5.0 mph 9.0 mph 89% 0.00 in
00:34 21.3 °F 18.6 °F 30.11 in NNE 6.0 mph 9.0 mph 89% 0.00 in
00:39 21.2 °F 18.5 °F 30.11 in NNE 5.0 mph 10.0 mph 89% 0.00 in
00:44 21.2 °F 18.5 °F 30.11 in NNE 5.0 mph 10.0 mph 89% 0.00 in
00:49 21.3 °F 18.6 °F 30.11 in NNE 4.0 mph 9.0 mph 89% 0.00 in
00:54 21.3 °F 18.6 °F 30.11 in NNE 4.0 mph 7.0 mph 89% 0.00 in
00:59 21.3 °F 18.6 °F 30.11 in NNE 7.0 mph 7.0 mph 89% 0.00 in
01:04 21.3 °F 18.6 °F 30.11 in North 2.0 mph 7.0 mph 89% 0.00 in
01:09 21.3 °F 18.6 °F 30.11 in North 5.0 mph 7.0 mph 89% 0.00 in
01:14 21.3 °F 18.6 °F 30.11 in NNW 3.0 mph 11.0 mph 89% 0.00 in
01:19 21.2 °F 18.5 °F 30.11 in NNE 3.0 mph 7.0 mph 89% 0.00 in
01:24 21.2 °F 18.5 °F 30.12 in NNE 3.0 mph 6.0 mph 89% 0.00 in
01:29 21.2 °F 18.5 °F 30.12 in NNE 6.0 mph 8.0 mph 89% 0.00 in
01:34 21.1 °F 18.4 °F 30.11 in North 3.0 mph 6.0 mph 89% 0.00 in
01:39 21.1 °F 18.4 °F 30.11 in NNE 4.0 mph 6.0 mph 89% 0.00 in
01:44 21.1 °F 18.4 °F 30.12 in NNE 3.0 mph 5.0 mph 89% 0.00 in
01:49 21.2 °F 18.5 °F 30.11 in North 2.0 mph 5.0 mph 89% 0.00 in
01:54 21.2 °F 18.5 °F 30.12 in NNW 2.0 mph 5.0 mph 89% 0.00 in
01:59 21.3 °F 18.6 °F 30.12 in NNW 2.0 mph 7.0 mph 89% 0.00 in
02:04 21.2 °F 18.5 °F 30.12 in NNE 2.0 mph 5.0 mph 89% 0.00 in
02:09 21.2 °F 18.5 °F 30.12 in North 3.0 mph 7.0 mph 89% 0.00 in
02:14 21.2 °F 18.5 °F 30.13 in North 1.0 mph 7.0 mph 89% 0.00 in
02:19 21.2 °F 18.5 °F 30.13 in NNW 3.0 mph 6.0 mph 89% 0.00 in
02:24 21.2 °F 18.5 °F 30.13 in NNW 2.0 mph 4.0 mph 89% 0.00 in
02:29 21.3 °F 18.6 °F 30.13 in NNW 4.0 mph 6.0 mph 89% 0.00 in
02:34 21.3 °F 18.6 °F 30.13 in North 3.0 mph 5.0 mph 89% 0.00 in
02:39 21.3 °F 18.6 °F 30.13 in North 2.0 mph 5.0 mph 89% 0.00 in
02:44 21.3 °F 18.6 °F 30.13 in North 2.0 mph 5.0 mph 89% 0.00 in
02:49 21.3 °F 18.6 °F 30.13 in North 2.0 mph 5.0 mph 89% 0.00 in
02:54 21.3 °F 18.6 °F 30.13 in North 2.0 mph 7.0 mph 89% 0.00 in
02:59 21.4 °F 18.7 °F 30.14 in NNW 3.0 mph 8.0 mph 89% 0.00 in
03:04 21.2 °F 18.5 °F 30.14 in North 4.0 mph 8.0 mph 89% 0.00 in
03:09 21.2 °F 18.5 °F 30.14 in North 3.0 mph 8.0 mph 89% 0.00 in
03:14 21.1 °F 18.4 °F 30.14 in NNW 3.0 mph 6.0 mph 89% 0.00 in
03:19 21.2 °F 18.5 °F 30.13 in NW 3.0 mph 7.0 mph 89% 0.00 in
03:24 21.1 °F 18.1 °F 30.14 in NNW 3.0 mph 8.0 mph 88% 0.00 in
03:29 20.9 °F 17.9 °F 30.14 in NNW 4.0 mph 8.0 mph 88% 0.00 in
03:34 20.9 °F 17.9 °F 30.14 in NW 3.0 mph 10.0 mph 88% 0.00 in
03:39 20.8 °F 17.8 °F 30.14 in NNW 2.0 mph 8.0 mph 88% 0.00 in
03:44 20.7 °F 17.7 °F 30.14 in NW 2.0 mph 8.0 mph 88% 0.00 in
03:49 20.6 °F 17.6 °F 30.15 in North 4.0 mph 8.0 mph 88% 0.00 in
03:54 20.5 °F 17.5 °F 30.14 in North 4.0 mph 8.0 mph 88% 0.00 in
03:59 20.4 °F 17.4 °F 30.14 in NNW 3.0 mph 7.0 mph 88% 0.00 in
04:04 20.5 °F 17.5 °F 30.15 in NNW 3.0 mph 7.0 mph 88% 0.00 in
04:09 20.4 °F 17.4 °F 30.15 in NNW 3.0 mph 7.0 mph 88% 0.00 in
04:14 20.5 °F 17.5 °F 30.15 in North 5.0 mph 7.0 mph 88% 0.00 in
04:19 20.4 °F 17.4 °F 30.15 in NW 3.0 mph 12.0 mph 88% 0.00 in
04:24 20.4 °F 17.4 °F 30.15 in NW 3.0 mph 6.0 mph 88% 0.00 in
04:29 20.4 °F 17.4 °F 30.15 in NNW 6.0 mph 8.0 mph 88% 0.00 in
04:34 20.3 °F 17.3 °F 30.16 in NW 6.0 mph 11.0 mph 88% 0.00 in
04:39 20.2 °F 17.2 °F 30.16 in NNW 3.0 mph 9.0 mph 88% 0.00 in
04:44 20.1 °F 17.1 °F 30.16 in NW 2.0 mph 9.0 mph 88% 0.00 in
04:49 20.1 °F 17.1 °F 30.16 in NW 2.0 mph 6.0 mph 88% 0.00 in
04:54 20.1 °F 17.1 °F 30.16 in NNW 3.0 mph 6.0 mph 88% 0.00 in
04:59 20.1 °F 17.1 °F 30.17 in NNW 3.0 mph 7.0 mph 88% 0.00 in
05:04 20.1 °F 17.1 °F 30.17 in NW 3.0 mph 7.0 mph 88% 0.00 in
05:09 20.1 °F 17.1 °F 30.17 in NW 4.0 mph 9.0 mph 88% 0.00 in
05:14 20.0 °F 17.0 °F 30.17 in WNW 7.0 mph 9.0 mph 88% 0.00 in
05:19 19.9 °F 16.9 °F 30.17 in NNW 5.0 mph 7.0 mph 88% 0.00 in
05:24 19.7 °F 16.7 °F 30.18 in NW 5.0 mph 9.0 mph 88% 0.00 in
05:29 19.6 °F 16.4 °F 30.18 in NW 5.0 mph 9.0 mph 87% 0.00 in
05:34 19.5 °F 16.3 °F 30.18 in NW 2.0 mph 6.0 mph 87% 0.00 in
05:39 19.5 °F 16.3 °F 30.18 in NW 6.0 mph 9.0 mph 87% 0.00 in
05:44 19.5 °F 16.3 °F 30.18 in NW 6.0 mph 6.0 mph 87% 0.00 in
05:49 19.4 °F 16.2 °F 30.18 in NNW 4.0 mph 10.0 mph 87% 0.00 in
05:54 19.3 °F 16.1 °F 30.18 in NW 4.0 mph 7.0 mph 87% 0.00 in
05:59 19.3 °F 16.1 °F 30.18 in NNW 4.0 mph 11.0 mph 87% 0.00 in
06:04 19.1 °F 15.9 °F 30.19 in NNW 4.0 mph 11.0 mph 87% 0.00 in
06:09 19.1 °F 15.9 °F 30.19 in NNW 3.0 mph 9.0 mph 87% 0.00 in
06:14 19.2 °F 16.0 °F 30.19 in NNW 3.0 mph 6.0 mph 87% 0.00 in
06:19 19.2 °F 16.0 °F 30.20 in NNW 2.0 mph 6.0 mph 87% 0.00 in
06:24 19.1 °F 15.9 °F 30.20 in NW 2.0 mph 8.0 mph 87% 0.00 in
06:29 19.1 °F 15.9 °F 30.20 in NNW 3.0 mph 8.0 mph 87% 0.00 in
06:34 19.0 °F 15.8 °F 30.20 in NNW 4.0 mph 9.0 mph 87% 0.00 in
06:39 18.9 °F 15.7 °F 30.21 in NW 5.0 mph 11.0 mph 87% 0.00 in
06:44 18.6 °F 15.4 °F 30.21 in NW 6.0 mph 14.0 mph 87% 0.00 in
06:49 18.5 °F 15.3 °F 30.21 in North 4.0 mph 11.0 mph 87% 0.00 in
06:54 18.4 °F 15.2 °F 30.21 in NW 3.0 mph 8.0 mph 87% 0.00 in
06:59 18.3 °F 15.1 °F 30.21 in NNW 5.0 mph 9.0 mph 87% 0.00 in
07:04 18.1 °F 14.9 °F 30.22 in NNW 4.0 mph 10.0 mph 87% 0.00 in
07:09 18.0 °F 14.8 °F 30.22 in NNW 5.0 mph 11.0 mph 87% 0.00 in
07:14 17.9 °F 14.7 °F 30.22 in NNW 4.0 mph 12.0 mph 87% 0.00 in
07:19 17.8 °F 14.3 °F 30.22 in WNW 7.0 mph 9.0 mph 86% 0.00 in
07:24 17.8 °F 14.3 °F 30.23 in NNW 4.0 mph 10.0 mph 86% 0.00 in
07:29 17.8 °F 14.3 °F 30.23 in NNW 6.0 mph 11.0 mph 86% 0.00 in
07:34 17.8 °F 14.3 °F 30.23 in NNW 5.0 mph 11.0 mph 86% 0.00 in
07:39 17.8 °F 14.3 °F 30.23 in NNW 5.0 mph 12.0 mph 86% 0.00 in
07:44 17.8 °F 14.3 °F 30.24 in NNW 4.0 mph 12.0 mph 86% 0.00 in
07:49 17.8 °F 14.3 °F 30.24 in NW 4.0 mph 10.0 mph 86% 0.00 in
07:54 17.7 °F 14.2 °F 30.24 in NW 6.0 mph 8.0 mph 86% 0.00 in
07:59 17.4 °F 13.9 °F 30.24 in NW 8.0 mph 11.0 mph 86% 0.00 in
08:04 17.1 °F 13.6 °F 30.25 in NNW 6.0 mph 11.0 mph 86% 0.00 in
08:09 16.8 °F 13.3 °F 30.25 in NW 5.0 mph 11.0 mph 86% 0.00 in
08:14 16.6 °F 13.1 °F 30.25 in NW 6.0 mph 13.0 mph 86% 0.00 in
08:19 16.4 °F 12.9 °F 30.26 in NW 6.0 mph 13.0 mph 86% 0.00 in
08:24 16.4 °F 12.7 °F 30.26 in NW 5.0 mph 13.0 mph 85% 0.00 in
08:29 16.3 °F 12.6 °F 30.26 in NNW 4.0 mph 10.0 mph 85% 0.00 in
08:34 16.3 °F 12.6 °F 30.26 in NNW 5.0 mph 9.0 mph 85% 0.00 in
08:39 16.3 °F 12.6 °F 30.27 in NW 7.0 mph 10.0 mph 85% 0.00 in
08:44 16.2 °F 12.2 °F 30.27 in NW 5.0 mph 11.0 mph 84% 0.00 in
08:49 16.4 °F 12.4 °F 30.27 in NW 4.0 mph 11.0 mph 84% 0.00 in
08:54 16.5 °F 12.5 °F 30.27 in NW 5.0 mph 10.0 mph 84% 0.00 in
08:59 16.8 °F 12.8 °F 30.27 in NW 3.0 mph 9.0 mph 84% 0.00 in
09:04 17.0 °F 12.7 °F 30.28 in North 2.0 mph 10.0 mph 83% 0.00 in
09:09 17.0 °F 12.7 °F 30.28 in NW 3.0 mph 11.0 mph 83% 0.00 in
09:14 16.9 °F 12.6 °F 30.28 in NW 2.0 mph 10.0 mph 83% 0.00 in
09:19 17.0 °F 12.7 °F 30.28 in NW 4.0 mph 10.0 mph 83% 0.00 in
09:24 17.0 °F 12.7 °F 30.28 in NW 4.0 mph 10.0 mph 83% 0.00 in
09:29 17.0 °F 12.7 °F 30.29 in NW 6.0 mph 10.0 mph 83% 0.00 in
09:34 16.9 °F 12.4 °F 30.29 in West 5.0 mph 9.0 mph 82% 0.00 in
09:39 17.0 °F 12.5 °F 30.29 in WNW 4.0 mph 11.0 mph 82% 0.00 in
09:44 17.1 °F 12.6 °F 30.30 in NW 6.0 mph 11.0 mph 82% 0.00 in
09:49 17.1 °F 12.6 °F 30.30 in WNW 5.0 mph 11.0 mph 82% 0.00 in
09:54 16.9 °F 12.4 °F 30.30 in WNW 6.0 mph 10.0 mph 82% 0.00 in
09:59 16.8 °F 12.3 °F 30.30 in WNW 6.0 mph 11.0 mph 82% 0.00 in
10:04 16.7 °F 12.2 °F 30.30 in WNW 6.0 mph 11.0 mph 82% 0.00 in
10:09 16.6 °F 12.1 °F 30.30 in WSW 11.0 mph 14.0 mph 82% 0.00 in
10:14 16.6 °F 12.1 °F 30.30 in NW 3.0 mph 12.0 mph 82% 0.00 in
10:19 16.8 °F 12.3 °F 30.31 in WNW 6.0 mph 12.0 mph 82% 0.00 in
10:24 16.8 °F 12.0 °F 30.31 in WNW 5.0 mph 12.0 mph 81% 0.00 in
10:29 16.7 °F 11.9 °F 30.31 in WNW 6.0 mph 11.0 mph 81% 0.00 in
10:34 16.7 °F 11.9 °F 30.31 in NW 8.0 mph 8.0 mph 81% 0.00 in
10:39 16.6 °F 11.8 °F 30.31 in WNW 6.0 mph 12.0 mph 81% 0.00 in
10:44 16.8 °F 12.0 °F 30.31 in West 6.0 mph 10.0 mph 81% 0.00 in
10:49 17.0 °F 12.2 °F 30.31 in SSW 4.0 mph 9.0 mph 81% 0.00 in
10:54 17.0 °F 12.2 °F 30.31 in WNW 5.0 mph 9.0 mph 81% 0.00 in
10:59 17.1 °F 12.0 °F 30.31 in WNW 5.0 mph 10.0 mph 80% 0.00 in
11:04 17.1 °F 12.0 °F 30.31 in WNW 5.0 mph 11.0 mph 80% 0.00 in
11:09 16.9 °F 11.8 °F 30.31 in West 6.0 mph 12.0 mph 80% 0.00 in
11:14 16.9 °F 12.1 °F 30.31 in WNW 6.0 mph 12.0 mph 81% 0.00 in
11:19 16.9 °F 11.8 °F 30.31 in West 5.0 mph 11.0 mph 80% 0.00 in
11:24 16.9 °F 11.8 °F 30.31 in WNW 6.0 mph 11.0 mph 80% 0.00 in
11:29 16.7 °F 11.3 °F 30.31 in WNW 6.0 mph 12.0 mph 79% 0.00 in
11:34 16.8 °F 11.7 °F 30.31 in WNW 6.0 mph 10.0 mph 80% 0.00 in
11:39 16.8 °F 11.4 °F 30.31 in WSW 4.0 mph 10.0 mph 79% 0.00 in
11:44 16.6 °F 11.2 °F 30.31 in NW 4.0 mph 13.0 mph 79% 0.00 in
11:49 16.7 °F 11.3 °F 30.31 in WNW 8.0 mph 11.0 mph 79% 0.00 in
11:54 17.1 °F 11.7 °F 30.30 in West 6.0 mph 11.0 mph 79% 0.00 in
11:59 18.0 °F 12.6 °F 30.30 in West 6.0 mph 11.0 mph 79% 0.00 in
12:04 18.8 °F 13.4 °F 30.30 in West 6.0 mph 11.0 mph 79% 0.00 in
12:09 18.3 °F 12.6 °F 30.29 in WNW 6.0 mph 11.0 mph 78% 0.00 in
12:14 17.2 °F 11.2 °F 30.30 in WNW 7.0 mph 14.0 mph 77% 0.00 in
12:19 16.9 °F 11.2 °F 30.30 in WNW 5.0 mph 12.0 mph 78% 0.00 in
12:24 17.3 °F 11.6 °F 30.29 in NW 10.0 mph 11.0 mph 78% 0.00 in
12:29 17.1 °F 11.4 °F 30.29 in WNW 6.0 mph 11.0 mph 78% 0.00 in
12:34 16.7 °F 11.0 °F 30.29 in WNW 6.0 mph 11.0 mph 78% 0.00 in
12:39 16.6 °F 11.2 °F 30.29 in WNW 9.0 mph 10.0 mph 79% 0.00 in
12:44 16.5 °F 11.1 °F 30.29 in West 7.0 mph 11.0 mph 79% 0.00 in
12:49 16.6 °F 11.2 °F 30.28 in NW 7.0 mph 14.0 mph 79% 0.00 in
12:54 16.7 °F 11.3 °F 30.28 in West 8.0 mph 11.0 mph 79% 0.00 in
12:59 16.4 °F 10.7 °F 30.29 in West 7.0 mph 12.0 mph 78% 0.00 in
13:04 16.7 °F 11.0 °F 30.28 in WNW 3.0 mph 11.0 mph 78% 0.00 in
13:09 16.6 °F 10.6 °F 30.28 in NW 5.0 mph 11.0 mph 77% 0.00 in
13:14 16.3 °F 10.4 °F 30.28 in WNW 6.0 mph 11.0 mph 77% 0.00 in
13:19 16.2 °F 10.3 °F 30.28 in West 7.0 mph 12.0 mph 77% 0.00 in
13:24 16.7 °F 10.7 °F 30.28 in West 7.0 mph 12.0 mph 77% 0.00 in
13:29 16.7 °F 10.7 °F 30.28 in West 7.0 mph 11.0 mph 77% 0.00 in
13:34 16.1 °F 9.9 °F 30.28 in West 7.0 mph 12.0 mph 76% 0.00 in
13:39 15.6 °F 9.7 °F 30.28 in West 6.0 mph 12.0 mph 77% 0.00 in
13:44 15.5 °F 9.6 °F 30.28 in West 6.0 mph 11.0 mph 77% 0.00 in
13:49 15.5 °F 9.6 °F 30.28 in West 6.0 mph 11.0 mph 77% 0.00 in
13:54 15.8 °F 10.2 °F 30.28 in West 6.0 mph 8.0 mph 78% 0.00 in
13:59 16.1 °F 10.4 °F 30.28 in West 9.0 mph 9.0 mph 78% 0.00 in
14:04 15.9 °F 10.3 °F 30.29 in WSW 7.0 mph 10.0 mph 78% 0.00 in
14:09 16.1 °F 10.2 °F 30.29 in West 7.0 mph 10.0 mph 77% 0.00 in
14:14 16.1 °F 10.2 °F 30.29 in WNW 5.0 mph 11.0 mph 77% 0.00 in
14:19 16.3 °F 10.1 °F 30.29 in West 8.0 mph 11.0 mph 76% 0.00 in
14:24 16.1 °F 9.9 °F 30.30 in West 5.0 mph 11.0 mph 76% 0.00 in
14:29 16.0 °F 9.8 °F 30.30 in West 5.0 mph 11.0 mph 76% 0.00 in
14:34 16.0 °F 9.5 °F 30.30 in West 5.0 mph 12.0 mph 75% 0.00 in
14:39 15.8 °F 9.3 °F 30.30 in West 5.0 mph 12.0 mph 75% 0.01 in
14:44 15.6 °F 9.1 °F 30.30 in West 6.0 mph 12.0 mph 75% 0.01 in
14:49 15.5 °F 8.7 °F 30.30 in WNW 2.0 mph 11.0 mph 74% 0.01 in
14:54 15.6 °F 8.8 °F 30.31 in West 5.0 mph 11.0 mph 74% 0.01 in
14:59 15.7 °F 8.9 °F 30.31 in WNW 5.0 mph 11.0 mph 74% 0.01 in
15:04 15.6 °F 8.8 °F 30.31 in WNW 5.0 mph 12.0 mph 74% 0.01 in
15:09 15.6 °F 8.8 °F 30.31 in West 5.0 mph 9.0 mph 74% 0.01 in
15:14 16.0 °F 8.9 °F 30.31 in WSW 6.0 mph 10.0 mph 73% 0.01 in
15:19 16.2 °F 8.8 °F 30.31 in West 2.0 mph 8.0 mph 72% 0.01 in
15:24 16.3 °F 8.9 °F 30.31 in SW 4.0 mph 9.0 mph 72% 0.01 in
15:29 16.2 °F 8.4 °F 30.31 in WSW 6.0 mph 9.0 mph 71% 0.01 in
15:34 15.7 °F 7.6 °F 30.31 in WSW 6.0 mph 12.0 mph 70% 0.01 in
15:39 15.4 °F 7.4 °F 30.31 in West 6.0 mph 12.0 mph 70% 0.00 in
15:44 15.8 °F 7.4 °F 30.32 in West 5.0 mph 10.0 mph 69% 0.00 in
15:49 15.8 °F 7.4 °F 30.32 in West 5.0 mph 10.0 mph 69% 0.00 in
15:54 15.7 °F 7.0 °F 30.32 in West 5.0 mph 10.0 mph 68% 0.00 in
15:59 15.7 °F 7.0 °F 30.33 in West 6.0 mph 13.0 mph 68% 0.00 in
16:04 15.8 °F 7.4 °F 30.33 in SW 4.0 mph 9.0 mph 69% 0.00 in
16:14 15.5 °F 6.8 °F 30.33 in West 5.0 mph 12.0 mph 68% 0.00 in
16:19 15.4 °F 6.7 °F 30.33 in West 3.0 mph 13.0 mph 68% 0.00 in
16:24 15.2 °F 6.5 °F 30.33 in SW 3.0 mph 11.0 mph 68% 0.00 in
16:29 15.1 °F 6.8 °F 30.33 in West 3.0 mph 10.0 mph 69% 0.00 in
16:34 14.8 °F 6.5 °F 30.33 in West 5.0 mph 11.0 mph 69% 0.00 in
16:39 14.7 °F 6.7 °F 30.33 in West 4.0 mph 11.0 mph 70% 0.00 in
16:44 14.5 °F 6.5 °F 30.33 in WSW 5.0 mph 12.0 mph 70% 0.00 in
16:49 14.5 °F 6.5 °F 30.33 in WSW 6.0 mph 12.0 mph 70% 0.00 in
16:54 14.3 °F 6.3 °F 30.33 in WSW 5.0 mph 11.0 mph 70% 0.00 in
16:59 14.1 °F 6.1 °F 30.34 in West 3.0 mph 8.0 mph 70% 0.00 in
17:04 14.0 °F 6.0 °F 30.34 in West 4.0 mph 9.0 mph 70% 0.00 in
17:09 13.7 °F 5.7 °F 30.33 in West 3.0 mph 9.0 mph 70% 0.00 in
17:14 13.6 °F 5.9 °F 30.34 in West 4.0 mph 8.0 mph 71% 0.00 in
17:19 13.5 °F 5.5 °F 30.34 in SW 5.0 mph 12.0 mph 70% 0.00 in
17:24 13.5 °F 5.5 °F 30.35 in West 2.0 mph 8.0 mph 70% 0.00 in
17:29 13.3 °F 5.3 °F 30.34 in West 5.0 mph 10.0 mph 70% 0.00 in
17:34 13.2 °F 5.2 °F 30.35 in West 4.0 mph 10.0 mph 70% 0.00 in
17:39 13.0 °F 5.0 °F 30.35 in West 4.0 mph 11.0 mph 70% 0.00 in
17:44 12.9 °F 5.0 °F 30.35 in West 4.0 mph 11.0 mph 70% 0.00 in
17:49 12.8 °F 4.9 °F 30.35 in West 4.0 mph 9.0 mph 70% 0.00 in
17:54 12.7 °F 4.8 °F 30.35 in West 4.0 mph 7.0 mph 70% 0.00 in
17:59 12.7 °F 4.8 °F 30.35 in WSW 3.0 mph 8.0 mph 70% 0.00 in
18:04 12.7 °F 4.8 °F 30.36 in West 4.0 mph 8.0 mph 70% 0.00 in
18:09 12.7 °F 4.8 °F 30.36 in West 3.0 mph 7.0 mph 70% 0.00 in
18:14 12.5 °F 4.6 °F 30.36 in West 4.0 mph 7.0 mph 70% 0.00 in
18:19 12.5 °F 4.6 °F 30.36 in WSW 3.0 mph 7.0 mph 70% 0.00 in
18:24 12.4 °F 4.5 °F 30.36 in WSW 2.0 mph 8.0 mph 70% 0.00 in
18:29 12.3 °F 4.4 °F 30.37 in West 3.0 mph 7.0 mph 70% 0.00 in
18:34 12.2 °F 4.3 °F 30.37 in West 3.0 mph 9.0 mph 70% 0.00 in
18:39 12.0 °F 4.1 °F 30.37 in West 3.0 mph 9.0 mph 70% 0.00 in
18:44 12.1 °F 4.2 °F 30.36 in WSW 2.0 mph 6.0 mph 70% 0.00 in
18:49 12.1 °F 4.2 °F 30.37 in West 2.0 mph 7.0 mph 70% 0.00 in
18:54 12.1 °F 4.2 °F 30.37 in West 4.0 mph 7.0 mph 70% 0.00 in
18:59 12.0 °F 4.1 °F 30.37 in West 2.0 mph 8.0 mph 70% 0.00 in
19:04 12.0 °F 4.1 °F 30.37 in WSW 3.0 mph 8.0 mph 70% 0.00 in
19:09 12.1 °F 4.2 °F 30.37 in WSW 4.0 mph 8.0 mph 70% 0.00 in
19:14 12.1 °F 4.2 °F 30.38 in WSW 4.0 mph 9.0 mph 70% 0.00 in
19:19 12.1 °F 4.2 °F 30.38 in West 4.0 mph 9.0 mph 70% 0.00 in
19:24 12.1 °F 4.2 °F 30.38 in West 6.0 mph 9.0 mph 70% 0.00 in
19:29 12.0 °F 4.1 °F 30.38 in West 8.0 mph 11.0 mph 70% 0.00 in
19:34 12.0 °F 4.1 °F 30.38 in West 5.0 mph 11.0 mph 70% 0.00 in
19:39 11.9 °F 4.0 °F 30.38 in West 5.0 mph 11.0 mph 70% 0.00 in
19:44 11.8 °F 3.9 °F 30.38 in West 4.0 mph 10.0 mph 70% 0.00 in
19:49 11.6 °F 3.7 °F 30.38 in West 6.0 mph 9.0 mph 70% 0.00 in
19:54 11.5 °F 3.6 °F 30.38 in West 3.0 mph 11.0 mph 70% 0.00 in
19:59 11.4 °F 3.5 °F 30.38 in WNW 4.0 mph 10.0 mph 70% 0.00 in
20:04 11.3 °F 3.4 °F 30.38 in West 5.0 mph 11.0 mph 70% 0.00 in
20:09 11.2 °F 3.6 °F 30.38 in West 5.0 mph 11.0 mph 71% 0.00 in
20:14 11.1 °F 3.5 °F 30.38 in West 5.0 mph 12.0 mph 71% 0.00 in
20:19 11.0 °F 3.4 °F 30.38 in West 5.0 mph 12.0 mph 71% 0.00 in
20:24 11.0 °F 3.4 °F 30.38 in West 4.0 mph 9.0 mph 71% 0.00 in
20:29 10.9 °F 3.3 °F 30.38 in West 4.0 mph 7.0 mph 71% 0.00 in
20:34 11.0 °F 3.7 °F 30.38 in West 4.0 mph 7.0 mph 72% 0.00 in
20:39 10.9 °F 3.6 °F 30.38 in West 4.0 mph 7.0 mph 72% 0.00 in
20:44 10.9 °F 3.6 °F 30.38 in WSW 1.0 mph 7.0 mph 72% 0.00 in
20:49 10.8 °F 3.5 °F 30.38 in West 2.0 mph 4.0 mph 72% 0.00 in
20:54 10.7 °F 3.7 °F 30.38 in West 3.0 mph 7.0 mph 73% 0.00 in
20:59 10.7 °F 3.7 °F 30.38 in West 5.0 mph 6.0 mph 73% 0.00 in
21:04 10.6 °F 3.6 °F 30.38 in West 3.0 mph 6.0 mph 73% 0.00 in
21:09 10.6 °F 3.6 °F 30.38 in West 3.0 mph 5.0 mph 73% 0.00 in
21:14 10.5 °F 3.8 °F 30.38 in West 3.0 mph 7.0 mph 74% 0.00 in
21:19 10.5 °F 3.8 °F 30.37 in West 3.0 mph 7.0 mph 74% 0.00 in
21:24 10.3 °F 3.7 °F 30.37 in West 3.0 mph 5.0 mph 74% 0.00 in
21:29 10.2 °F 3.6 °F 30.37 in West 3.0 mph 5.0 mph 74% 0.00 in
21:34 10.1 °F 3.5 °F 30.37 in West 1.0 mph 6.0 mph 74% 0.00 in
21:39 9.9 °F 3.3 °F 30.37 in West 2.0 mph 4.0 mph 74% 0.00 in
21:44 9.8 °F 3.2 °F 30.37 in West 2.0 mph 6.0 mph 74% 0.00 in
21:49 9.7 °F 3.1 °F 30.37 in West 1.0 mph 3.0 mph 74% 0.00 in
21:54 9.4 °F 2.8 °F 30.37 in West 1.0 mph 2.0 mph 74% 0.00 in
21:59 9.3 °F 2.7 °F 30.37 in WSW 1.0 mph 4.0 mph 74% 0.00 in
22:04 9.3 °F 3.0 °F 30.37 in WSW 1.0 mph 4.0 mph 75% 0.00 in
22:09 9.4 °F 3.1 °F 30.36 in WSW 2.0 mph 4.0 mph 75% 0.00 in
22:14 9.4 °F 3.1 °F 30.36 in WSW 2.0 mph 4.0 mph 75% 0.00 in
22:19 9.5 °F 3.2 °F 30.36 in WSW 2.0 mph 4.0 mph 75% 0.00 in
22:24 9.2 °F 2.9 °F 30.36 in WSW 1.0 mph 3.0 mph 75% 0.00 in
22:29 9.0 °F 2.7 °F 30.36 in WSW 1.0 mph 3.0 mph 75% 0.00 in
22:34 8.6 °F 2.3 °F 30.35 in Calm   2.0 mph 75% 0.00 in
22:39 8.0 °F 2.0 °F 30.35 in Calm     76% 0.00 in
22:44 7.6 °F 1.6 °F 30.35 in Calm     76% 0.00 in
22:49 7.0 °F 1.3 °F 30.35 in Calm   2.0 mph 77% 0.00 in
22:54 6.9 °F 1.2 °F 30.34 in Calm   2.0 mph 77% 0.00 in
22:59 6.7 °F 1.3 °F 30.35 in Calm     78% 0.00 in
23:04 6.5 °F 1.1 °F 30.35 in Calm     78% 0.00 in
23:09 6.2 °F 0.8 °F 30.35 in Calm     78% 0.00 in
23:14 5.9 °F 0.8 °F 30.35 in Calm     79% 0.00 in
23:19 5.6 °F 0.5 °F 30.35 in Calm     79% 0.00 in
23:24 5.5 °F 0.4 °F 30.35 in Calm     79% 0.00 in
23:29 5.5 °F 0.7 °F 30.35 in Calm     80% 0.00 in
23:34 5.7 °F 0.9 °F 30.35 in Calm     80% 0.00 in
23:39 5.4 °F 0.6 °F 30.35 in Calm     80% 0.00 in
23:44 5.4 °F 0.8 °F 30.35 in Calm     81% 0.00 in
23:49 5.4 °F 0.8 °F 30.35 in Calm     81% 0.00 in
23:54 5.7 °F 1.1 °F 30.34 in Calm     81% 0.00 in
23:59 5.8 °F 1.2 °F 30.35 in Calm     81% 0.00 in
Buffalo, New York, USA
Compliments of Weather Underground - 2.5 mb